Time;durP1;ratioP1;P1;durP2;ratioP2;P2;SDS_P1;SDS_P2;PMS_P1;PMS_P2;Temp;Humidity;BMP_temperature;BMP_pressure;BME280_temperature;BME280_humidity;BME280_pressure;Samples;Min_cycle;Max_cycle;Signal;HPM_P1;HPM_P2
2023/06/28 00:02:01;;;;;;;0.00;0.00;;;;;;;26.38;41.73;101921.00;5060783;28;20025;-65
2023/06/28 00:04:27;;;;;;;0.00;0.00;;;;;;;26.40;41.21;101917.91;5069923;28;20040;-63
2023/06/28 00:06:52;;;;;;;0.00;0.00;;;;;;;26.09;41.30;101921.25;5066190;28;20031;-64
2023/06/28 00:09:18;;;;;;;0.10;0.10;;;;;;;26.61;40.64;101914.47;5061970;28;20419;-63
2023/06/28 00:11:45;;;;;;;0.00;0.00;;;;;;;26.03;42.20;101916.94;5042465;28;20029;-63
2023/06/28 00:14:10;;;;;;;0.10;0.10;;;;;;;26.29;41.32;101903.53;5060774;28;20025;-63
2023/06/28 00:16:36;;;;;;;0.00;0.00;;;;;;;26.58;40.66;101909.56;5064075;28;20025;-64
2023/06/28 00:19:03;;;;;;;0.10;0.10;;;;;;;26.10;42.27;101911.06;5061533;28;20519;-62
2023/06/28 00:21:28;;;;;;;0.00;0.00;;;;;;;26.38;41.26;101909.16;5061088;28;20102;-64
2023/06/28 00:23:54;;;;;;;0.00;0.00;;;;;;;26.45;40.89;101906.81;5063788;28;20393;-63
2023/06/28 00:26:21;;;;;;;0.00;0.00;;;;;;;26.56;40.15;101909.06;5080551;28;20419;-64
2023/06/28 00:28:47;;;;;;;0.00;0.00;;;;;;;26.39;40.70;101914.38;5079083;28;20492;-62
2023/06/28 00:31:12;;;;;;;0.00;0.00;;;;;;;26.52;40.15;101908.03;5079828;28;20028;-63
2023/06/28 00:33:37;;;;;;;0.00;0.00;;;;;;;26.31;40.31;101908.72;5080987;28;20032;-64
2023/06/28 00:36:03;;;;;;;0.00;0.00;;;;;;;26.36;40.39;101917.72;5078727;28;20565;-62
2023/06/28 00:38:28;;;;;;;0.00;0.00;;;;;;;26.17;40.95;101916.16;5081258;28;20118;-63
2023/06/28 00:40:55;;;;;;;0.05;0.05;;;;;;;26.32;40.72;101911.19;5079327;28;20036;-63
2023/06/28 00:43:20;;;;;;;0.00;0.00;;;;;;;26.45;40.81;101912.31;5080756;28;20031;-63
2023/06/28 00:45:45;;;;;;;0.00;0.00;;;;;;;26.36;40.88;101914.97;5079189;28;20074;-63
2023/06/28 00:48:11;;;;;;;0.03;0.03;;;;;;;26.51;40.33;101906.41;5073463;28;20024;-63
2023/06/28 00:50:37;;;;;;;0.10;0.10;;;;;;;26.63;40.34;101911.41;5069558;28;20492;-63
2023/06/28 00:53:03;;;;;;;0.00;0.00;;;;;;;26.41;40.63;101914.88;5071057;28;20029;-63
2023/06/28 00:55:28;;;;;;;0.00;0.00;;;;;;;26.33;40.63;101912.84;5073672;28;20560;-62
2023/06/28 00:57:54;;;;;;;0.00;0.00;;;;;;;26.21;41.32;101920.78;5074079;28;20028;-64
2023/06/28 01:00:19;;;;;;;0.00;0.00;;;;;;;26.34;40.94;101925.47;5073343;28;20067;-65
2023/06/28 01:02:44;;;;;;;0.10;0.10;;;;;;;26.24;41.20;101917.38;5073606;28;20025;-64
2023/06/28 01:05:13;;;;;;;0.00;0.00;;;;;;;25.92;42.01;101918.22;5074684;28;20483;-65
2023/06/28 01:07:39;;;;;;;0.00;0.00;;;;;;;25.89;42.22;101918.81;5073517;28;20040;-62
2023/06/28 01:10:06;;;;;;;0.00;0.00;;;;;;;26.35;41.28;101912.53;5080317;28;20021;-64
2023/06/28 01:12:32;;;;;;;0.05;0.05;;;;;;;26.25;41.72;101921.81;5073976;28;20078;-65
2023/06/28 01:14:58;;;;;;;0.00;0.00;;;;;;;26.08;42.11;101918.81;5073260;28;21447;-64
2023/06/28 01:17:23;;;;;;;0.00;0.00;;;;;;;26.10;42.12;101922.09;5070665;28;20082;-63
2023/06/28 01:19:49;;;;;;;0.00;0.00;;;;;;;25.92;42.12;101923.75;5073509;28;20044;-64
2023/06/28 01:22:14;;;;;;;0.10;0.10;;;;;;;25.82;42.30;101920.34;5072950;28;20500;-62
2023/06/28 01:24:46;;;;;;;0.10;0.10;;;;;;;25.93;42.01;101919.03;5073766;28;20028;-63
2023/06/28 01:27:13;;;;;;;0.05;0.05;;;;;;;26.01;41.65;101916.41;5073297;28;20127;-64
2023/06/28 01:29:40;;;;;;;0.00;0.00;;;;;;;25.54;42.37;101913.06;5073340;28;20033;-64
2023/06/28 01:32:06;;;;;;;0.00;0.00;;;;;;;25.84;41.98;101918.09;5073343;28;20378;-63
2023/06/28 01:34:31;;;;;;;0.00;0.00;;;;;;;25.49;42.36;101922.25;5073295;28;20044;-64
2023/06/28 01:37:00;;;;;;;0.10;0.10;;;;;;;25.94;41.96;101921.50;5073970;28;20032;-64
2023/06/28 01:39:26;;;;;;;0.10;0.10;;;;;;;25.96;41.65;101921.19;5073453;28;20067;-64
2023/06/28 01:41:53;;;;;;;0.00;0.00;;;;;;;25.90;41.50;101931.50;5055245;28;20052;-63
2023/06/28 01:44:19;;;;;;;0.00;0.00;;;;;;;24.80;44.55;101925.63;5055595;28;20040;-63
2023/06/28 01:46:44;;;;;;;0.00;0.00;;;;;;;25.52;43.14;101924.38;5073123;28;20039;-62
2023/06/28 01:49:10;;;;;;;0.08;0.08;;;;;;;24.31;46.89;101930.56;5073060;28;20024;-62
2023/06/28 01:51:36;;;;;;;0.10;0.10;;;;;;;24.92;45.10;101931.50;5073728;28;20020;-65
2023/06/28 01:54:02;;;;;;;0.00;0.00;;;;;;;25.36;43.62;101927.63;5073244;28;20554;-64
2023/06/28 01:56:28;;;;;;;0.00;0.00;;;;;;;25.53;43.29;101926.03;5073221;28;20036;-64
2023/06/28 01:58:53;;;;;;;0.08;0.08;;;;;;;25.20;43.75;101919.59;5073120;28;20378;-62
2023/06/28 02:01:19;;;;;;;0.10;0.10;;;;;;;25.56;43.34;101919.91;5091616;28;20027;-65
2023/06/28 02:03:44;;;;;;;0.10;0.10;;;;;;;25.26;44.36;101912.91;5093510;28;20464;-63
2023/06/28 02:06:09;;;;;;;0.10;0.10;;;;;;;25.53;43.52;101909.53;5077808;28;20055;-65
2023/06/28 02:08:35;;;;;;;0.00;0.00;;;;;;;25.40;43.88;101917.69;5072813;28;20039;-63
2023/06/28 02:11:00;;;;;;;0.10;0.10;;;;;;;24.86;45.73;101915.38;5072946;28;20106;-63
2023/06/28 02:13:25;;;;;;;0.10;0.10;;;;;;;25.40;44.86;101913.00;5072545;28;20029;-62
2023/06/28 02:15:51;;;;;;;0.10;0.10;;;;;;;25.45;44.85;101917.63;5073071;28;20074;-63
2023/06/28 02:18:16;;;;;;;0.10;0.10;;;;;;;25.22;45.93;101920.13;5055595;28;20370;-63
2023/06/28 02:20:42;;;;;;;0.10;0.10;;;;;;;25.25;45.77;101907.69;5066020;28;20097;-64
2023/06/28 02:23:08;;;;;;;0.10;0.10;;;;;;;25.31;45.55;101908.44;5072656;28;20527;-63
2023/06/28 02:25:33;;;;;;;0.05;0.05;;;;;;;25.39;44.86;101908.59;5072677;28;20040;-63
2023/06/28 02:27:58;;;;;;;0.10;0.10;;;;;;;25.48;44.58;101908.75;5073187;28;20046;-64
2023/06/28 02:30:24;;;;;;;0.00;0.00;;;;;;;25.11;46.01;101910.38;5072366;28;20394;-64
2023/06/28 02:32:50;;;;;;;0.10;0.10;;;;;;;25.38;45.38;101904.19;5072485;28;20081;-62
2023/06/28 02:35:15;;;;;;;0.10;0.10;;;;;;;25.27;45.68;101895.28;5072419;28;20040;-62
2023/06/28 02:37:40;;;;;;;0.10;0.10;;;;;;;25.12;46.25;101894.66;5072311;28;20029;-63
2023/06/28 02:40:09;;;;;;;0.05;0.05;;;;;;;25.24;46.33;101889.53;5072232;28;20028;-62
2023/06/28 02:42:34;;;;;;;0.10;0.10;;;;;;;25.05;46.74;101905.22;5072814;28;20154;-63
2023/06/28 02:45:00;;;;;;;0.10;0.10;;;;;;;24.94;47.35;101899.03;5072171;28;20032;-64
2023/06/28 02:47:25;;;;;;;0.10;0.10;;;;;;;24.94;47.09;101899.03;5072059;28;20047;-62
2023/06/28 02:49:51;;;;;;;0.10;0.10;;;;;;;24.70;47.53;101906.47;5071988;28;20055;-61
2023/06/28 02:52:16;;;;;;;0.10;0.10;;;;;;;24.56;48.19;101910.22;5071926;28;20024;-61
2023/06/28 02:54:41;;;;;;;0.10;0.10;;;;;;;24.26;49.43;101909.44;5072581;28;20546;-61
2023/06/28 02:57:09;;;;;;;0.10;0.10;;;;;;;24.31;49.10;101903.88;5087276;28;20053;-61
2023/06/28 02:59:34;;;;;;;0.10;0.10;;;;;;;24.70;48.08;101906.47;5084110;28;20039;-62
2023/06/28 03:02:00;;;;;;;0.10;0.10;;;;;;;24.29;49.51;101903.34;5073018;28;20398;-61
2023/06/28 03:04:27;;;;;;;0.10;0.10;;;;;;;24.93;48.25;101893.84;5071661;28;20040;-60
2023/06/28 03:06:53;;;;;;;0.10;0.10;;;;;;;24.89;48.61;101896.38;5072350;28;20128;-62
2023/06/28 03:09:20;;;;;;;0.10;0.10;;;;;;;24.78;48.93;101897.63;5082702;28;20583;-62
2023/06/28 03:11:46;;;;;;;0.10;0.10;;;;;;;24.97;48.17;101901.22;5091792;28;20036;-62
2023/06/28 03:14:11;;;;;;;0.10;0.10;;;;;;;24.85;48.97;101892.56;5091962;28;20350;-62
2023/06/28 03:16:37;;;;;;;0.10;0.10;;;;;;;24.78;48.14;101900.38;5088825;28;20028;-62
2023/06/28 03:19:04;;;;;;;0.10;0.10;;;;;;;25.01;47.64;101891.25;5070962;28;20036;-63
2023/06/28 03:21:30;;;;;;;0.10;0.10;;;;;;;24.83;48.19;101892.03;5071273;28;20132;-61
2023/06/28 03:23:55;;;;;;;0.00;0.00;;;;;;;24.84;48.91;101885.44;5070480;28;20818;-62
2023/06/28 03:26:20;;;;;;;0.10;0.10;;;;;;;24.95;48.24;101895.19;5070635;28;20086;-63
2023/06/28 03:28:46;;;;;;;0.10;0.10;;;;;;;24.65;48.69;101897.47;5070717;28;20033;-63
2023/06/28 03:31:11;;;;;;;0.10;0.10;;;;;;;24.72;47.49;101892.44;5070934;28;20020;-64
2023/06/28 03:33:36;;;;;;;0.10;0.10;;;;;;;24.61;47.20;101888.97;5070368;28;20036;-61
2023/06/28 03:36:02;;;;;;;0.10;0.10;;;;;;;24.31;48.48;101898.38;5070863;28;20036;-61
2023/06/28 03:38:27;;;;;;;0.10;0.10;;;;;;;24.39;48.09;101886.75;5070454;28;20082;-61
2023/06/28 03:40:52;;;;;;;0.10;0.10;;;;;;;24.43;47.89;101885.06;5070904;28;20079;-64
2023/06/28 03:43:18;;;;;;;0.10;0.10;;;;;;;24.77;46.83;101886.88;5070949;28;20028;-62
2023/06/28 03:45:43;;;;;;;0.10;0.10;;;;;;;24.31;47.70;101881.09;5070465;28;20392;-62
2023/06/28 03:48:09;;;;;;;0.15;0.15;;;;;;;24.47;47.58;101882.53;5070626;28;20045;-65
2023/06/28 03:50:35;;;;;;;0.10;0.10;;;;;;;24.47;47.53;101888.03;5071101;28;20532;-62
2023/06/28 03:53:00;;;;;;;0.10;0.10;;;;;;;24.47;47.44;101881.75;5070652;28;20534;-62
2023/06/28 03:55:25;;;;;;;0.10;0.10;;;;;;;24.43;48.01;101887.81;5071359;28;20101;-64
2023/06/28 03:57:51;;;;;;;0.10;0.10;;;;;;;24.52;47.94;101885.25;5070680;28;20054;-62
2023/06/28 04:00:17;;;;;;;0.05;0.05;;;;;;;24.61;47.27;101877.19;5070862;28;20396;-62
2023/06/28 04:02:42;;;;;;;0.10;0.10;;;;;;;24.46;47.76;101877.34;5067941;28;20436;-61
2023/06/28 04:05:08;;;;;;;0.08;0.08;;;;;;;24.58;48.22;101889.59;5070551;28;20475;-62
2023/06/28 04:07:33;;;;;;;0.10;0.10;;;;;;;24.86;47.30;101876.88;5064220;28;20432;-63
2023/06/28 04:09:59;;;;;;;0.10;0.10;;;;;;;24.58;48.03;101891.50;5061679;28;20132;-60
2023/06/28 04:12:24;;;;;;;0.10;0.10;;;;;;;24.50;48.51;101886.66;5062529;28;20043;-61
2023/06/28 04:14:50;;;;;;;0.10;0.10;;;;;;;24.57;48.15;101887.13;5070652;28;20074;-60
2023/06/28 04:17:15;;;;;;;0.10;0.10;;;;;;;24.62;48.14;101889.81;5070581;28;20033;-62
2023/06/28 04:19:41;;;;;;;0.10;0.10;;;;;;;24.63;48.64;101891.47;5071028;28;20028;-61
2023/06/28 04:22:06;;;;;;;0.10;0.10;;;;;;;24.68;48.84;101894.13;5070526;28;20049;-61
2023/06/28 04:24:31;;;;;;;0.10;0.10;;;;;;;24.06;50.31;101887.66;5070754;28;20060;-62
2023/06/28 04:27:00;;;;;;;0.10;0.10;;;;;;;24.50;49.58;101892.97;5070166;28;20032;-63
2023/06/28 04:29:28;;;;;;;0.10;0.10;;;;;;;24.63;49.26;101885.97;5063286;28;20508;-64
2023/06/28 04:32:00;;;;;;;0.10;0.10;;;;;;;24.68;49.59;101888.63;5051741;28;20074;-62
2023/06/28 04:34:25;;;;;;;0.10;0.10;;;;;;;24.84;49.11;101885.44;5067864;28;20062;-63
2023/06/28 04:36:51;;;;;;;0.10;0.10;;;;;;;24.26;50.76;101889.38;5069784;28;20427;-62
2023/06/28 04:39:17;;;;;;;0.10;0.10;;;;;;;24.59;49.92;101882.16;5070072;28;20037;-62
2023/06/28 04:41:42;;;;;;;0.10;0.10;;;;;;;24.75;50.74;101883.63;5069815;28;20074;-64
2023/06/28 04:44:09;;;;;;;0.10;0.10;;;;;;;24.49;51.05;101882.28;5069843;28;20033;-62
2023/06/28 04:46:35;;;;;;;0.10;0.10;;;;;;;24.67;50.50;101881.50;5062504;28;20029;-63
2023/06/28 04:49:00;;;;;;;0.10;0.10;;;;;;;24.83;51.19;101877.47;5071065;28;20107;-62
2023/06/28 04:51:26;;;;;;;0.10;0.10;;;;;;;24.79;51.71;101880.00;5051626;28;20029;-60
2023/06/28 04:53:52;;;;;;;0.10;0.10;;;;;;;24.75;52.10;101887.19;5069567;28;20059;-63
2023/06/28 04:56:17;;;;;;;0.10;0.10;;;;;;;24.90;52.29;101875.19;5069954;28;20071;-61
2023/06/28 04:58:43;;;;;;;0.10;0.10;;;;;;;24.89;51.51;101882.63;5069912;28;20538;-62
2023/06/28 05:01:09;;;;;;;0.10;0.10;;;;;;;25.06;50.92;101879.38;5069643;28;20507;-63
2023/06/28 05:03:35;;;;;;;0.10;0.10;;;;;;;24.78;51.33;101870.13;5069496;28;20369;-62
2023/06/28 05:06:02;;;;;;;0.10;0.10;;;;;;;25.36;50.27;101873.41;5069550;28;20447;-61
2023/06/28 05:08:27;;;;;;;0.05;0.05;;;;;;;25.32;50.59;101866.84;5051893;28;20058;-62
2023/06/28 05:10:53;;;;;;;0.10;0.10;;;;;;;25.33;50.68;101873.19;5055214;28;20480;-63
2023/06/28 05:13:21;;;;;;;0.00;0.00;;;;;;;25.31;50.33;101875.41;5069971;28;20032;-63
2023/06/28 05:15:46;;;;;;;0.10;0.10;;;;;;;25.44;49.89;101875.50;5056607;28;20035;-60
2023/06/28 05:18:12;;;;;;;0.10;0.10;;;;;;;25.24;50.44;101870.28;5069837;28;20434;-62
2023/06/28 05:20:37;;;;;;;0.10;0.10;;;;;;;25.49;50.09;101869.13;5070377;28;20423;-60
2023/06/28 05:23:15;;;;;;;0.10;0.10;;;;;;;25.41;49.87;101878.88;5086974;28;20449;-61
2023/06/28 05:25:41;;;;;;;0.10;0.10;;;;;;;24.67;52.32;101876.81;5090515;28;20020;-62
2023/06/28 05:28:09;;;;;;;0.00;0.00;;;;;;;24.91;52.44;101869.38;5070077;28;20061;-61
2023/06/28 05:30:35;;;;;;;0.10;0.10;;;;;;;25.22;50.86;101867.84;5058996;28;20033;-62
2023/06/28 05:33:02;;;;;;;0.10;0.10;;;;;;;25.18;51.99;101866.78;5060457;28;20047;-63
2023/06/28 05:35:32;;;;;;;0.10;0.10;;;;;;;25.15;51.14;101870.16;5069823;28;20075;-62
2023/06/28 05:37:59;;;;;;;0.10;0.10;;;;;;;25.26;50.70;101857.03;5069678;28;20118;-62
2023/06/28 05:40:26;;;;;;;0.10;0.10;;;;;;;25.39;51.58;101856.31;5074545;28;20020;-63
2023/06/28 05:42:53;;;;;;;0.10;0.10;;;;;;;25.43;51.41;101851.88;5085427;28;20511;-61
2023/06/28 05:45:19;;;;;;;0.00;0.00;;;;;;;24.86;52.03;101850.22;5081959;28;20029;-62
2023/06/28 05:47:44;;;;;;;0.10;0.10;;;;;;;24.77;52.88;101856.66;5058346;28;20123;-60
2023/06/28 05:50:10;;;;;;;0.10;0.10;;;;;;;24.63;53.37;101863.97;5058571;28;20032;-65
2023/06/28 05:52:36;;;;;;;0.10;0.10;;;;;;;24.74;53.20;101857.25;5073461;28;20055;-63
2023/06/28 05:55:01;;;;;;;0.00;0.00;;;;;;;24.66;53.09;101847.69;5078073;28;20031;-61
2023/06/28 05:57:26;;;;;;;0.10;0.10;;;;;;;24.61;53.14;101844.19;5077828;28;20278;-61
2023/06/28 05:59:52;;;;;;;0.00;0.00;;;;;;;24.75;52.91;101850.63;5083674;28;20039;-61
2023/06/28 06:02:17;;;;;;;0.10;0.10;;;;;;;24.94;52.33;101840.47;5072882;28;20041;-60
2023/06/28 06:04:42;;;;;;;0.10;0.10;;;;;;;24.55;53.67;101857.16;5072464;28;20045;-61
2023/06/28 06:07:08;;;;;;;0.10;0.10;;;;;;;24.66;53.82;101844.94;5073019;28;20051;-63
2023/06/28 06:09:33;;;;;;;0.10;0.10;;;;;;;24.87;53.10;101838.09;5084567;28;20036;-60
2023/06/28 06:11:58;;;;;;;0.10;0.10;;;;;;;24.79;53.45;101835.16;5088518;28;20786;-62
2023/06/28 06:14:24;;;;;;;0.10;0.10;;;;;;;25.13;52.73;101828.38;5072190;28;20033;-63
2023/06/28 06:16:49;;;;;;;0.10;0.10;;;;;;;24.98;52.57;101831.31;5071985;28;20032;-62
2023/06/28 06:19:15;;;;;;;0.10;0.10;;;;;;;24.84;53.04;101838.69;5072591;28;20017;-61
2023/06/28 06:21:40;;;;;;;0.00;0.00;;;;;;;24.92;53.24;101832.50;5053700;28;20045;-61
2023/06/28 06:24:07;;;;;;;0.10;0.10;;;;;;;25.09;52.16;101838.31;5072333;28;20036;-62
2023/06/28 06:26:34;;;;;;;0.10;0.10;;;;;;;23.93;54.99;101841.63;5072118;28;20075;-61
2023/06/28 06:29:00;;;;;;;0.10;0.10;;;;;;;24.88;53.13;101847.16;5072361;28;20028;-61
2023/06/28 06:31:25;;;;;;;0.10;0.10;;;;;;;24.73;53.34;101845.44;5067934;28;20036;-62
2023/06/28 06:33:51;;;;;;;0.05;0.05;;;;;;;25.12;51.98;101845.16;5067296;28;20028;-60
2023/06/28 06:36:16;;;;;;;0.10;0.10;;;;;;;25.12;52.21;101842.41;5058802;28;20083;-61
2023/06/28 06:38:42;;;;;;;0.10;0.10;;;;;;;24.60;53.37;101848.06;5060240;28;20028;-63
2023/06/28 06:41:07;;;;;;;0.00;0.00;;;;;;;25.26;51.16;101846.03;5078772;28;20111;-62
2023/06/28 06:43:33;;;;;;;0.10;0.10;;;;;;;25.31;51.00;101850.66;5092864;28;20024;-59
2023/06/28 06:45:58;;;;;;;0.10;0.10;;;;;;;25.48;50.71;101848.19;5090120;28;20032;-61
2023/06/28 06:48:24;;;;;;;0.10;0.10;;;;;;;25.77;50.05;101846.03;5072107;28;20032;-59
2023/06/28 06:50:49;;;;;;;0.10;0.10;;;;;;;25.78;50.27;101854.03;5071830;28;20436;-63
2023/06/28 06:53:14;;;;;;;0.00;0.00;;;;;;;26.02;49.72;101851.91;5072465;28;20039;-63
2023/06/28 06:55:40;;;;;;;0.10;0.10;;;;;;;25.74;50.68;101855.75;5072575;28;20401;-62
2023/06/28 06:58:05;;;;;;;0.00;0.00;;;;;;;25.53;51.36;101856.38;5072006;28;20043;-60
2023/06/28 07:00:30;;;;;;;0.10;0.10;;;;;;;25.71;51.26;101861.84;5071945;28;20036;-61
2023/06/28 07:02:56;;;;;;;0.10;0.10;;;;;;;25.79;50.77;101860.31;5071958;28;20404;-62
2023/06/28 07:05:21;;;;;;;0.00;0.00;;;;;;;25.59;51.93;101869.75;5071657;28;20032;-62
2023/06/28 07:07:47;;;;;;;0.05;0.05;;;;;;;25.55;51.97;101867.91;5071722;28;20029;-60
2023/06/28 07:10:12;;;;;;;0.10;0.10;;;;;;;25.33;52.96;101857.50;5071690;28;20024;-60
2023/06/28 07:12:37;;;;;;;0.10;0.10;;;;;;;25.47;52.78;101860.34;5070365;28;20033;-62
2023/06/28 07:15:03;;;;;;;0.10;0.10;;;;;;;25.81;52.12;101866.34;5051408;28;20041;-61
2023/06/28 07:17:30;;;;;;;0.03;0.03;;;;;;;25.92;51.43;101865.06;5051109;28;20510;-60
2023/06/28 07:19:56;;;;;;;0.10;0.10;;;;;;;25.47;51.96;101865.84;5051199;28;20481;-61
2023/06/28 07:22:21;;;;;;;0.10;0.10;;;;;;;25.53;52.52;101865.47;5051527;28;20037;-62
2023/06/28 07:24:47;;;;;;;0.00;0.00;;;;;;;25.58;52.24;101868.13;5051222;28;20041;-66
2023/06/28 07:27:12;;;;;;;0.00;0.00;;;;;;;25.32;52.95;101875.13;5051236;28;20037;-61
2023/06/28 07:29:38;;;;;;;0.00;0.00;;;;;;;25.59;51.67;101871.72;5051109;28;20044;-62
2023/06/28 07:32:04;;;;;;;0.00;0.00;;;;;;;25.48;52.20;101873.78;5051214;28;20097;-61
2023/06/28 07:34:29;;;;;;;0.10;0.10;;;;;;;25.52;52.50;101874.84;5051451;28;20036;-62
2023/06/28 07:36:54;;;;;;;0.10;0.10;;;;;;;25.55;52.44;101876.97;5048197;28;20052;-62
2023/06/28 07:39:20;;;;;;;0.00;0.00;;;;;;;25.67;52.10;101880.06;5065201;28;20097;-62
2023/06/28 07:41:45;;;;;;;0.10;0.10;;;;;;;25.58;52.53;101873.63;5073013;28;20041;-62
2023/06/28 07:44:10;;;;;;;0.00;0.00;;;;;;;25.60;52.61;101873.31;5070043;28;20033;-61
2023/06/28 07:46:36;;;;;;;0.00;0.00;;;;;;;25.11;53.51;101873.78;5070821;28;20389;-60
2023/06/28 07:49:02;;;;;;;0.00;0.00;;;;;;;24.78;54.16;101878.38;5070022;28;20072;-63
2023/06/28 07:51:27;;;;;;;0.00;0.00;;;;;;;25.49;52.22;101874.63;5069876;28;20040;-62
2023/06/28 07:53:52;;;;;;;0.10;0.10;;;;;;;25.50;52.59;101871.56;5070196;28;20082;-62
2023/06/28 07:56:19;;;;;;;0.10;0.10;;;;;;;25.49;52.32;101878.19;5070133;28;20032;-64
2023/06/28 07:58:45;;;;;;;0.00;0.00;;;;;;;25.46;53.31;101875.19;5069119;28;20032;-63
2023/06/28 08:01:10;;;;;;;0.10;0.10;;;;;;;25.69;52.34;101886.09;5070158;28;20031;-61
2023/06/28 08:03:35;;;;;;;0.00;0.00;;;;;;;25.57;52.77;101874.75;5067669;28;20036;-63
2023/06/28 08:06:01;;;;;;;0.10;0.10;;;;;;;25.72;52.57;101874.50;5068571;28;20032;-63
2023/06/28 08:08:26;;;;;;;0.08;0.08;;;;;;;25.85;52.17;101883.91;5059182;28;20032;-62
2023/06/28 08:10:52;;;;;;;0.03;0.03;;;;;;;25.84;52.58;101879.53;5070600;28;20480;-62
2023/06/28 08:13:17;;;;;;;0.00;0.00;;;;;;;25.64;53.02;101880.69;5056729;28;20036;-61
2023/06/28 08:15:43;;;;;;;0.00;0.00;;;;;;;25.86;52.27;101880.03;5056773;28;20082;-60
2023/06/28 08:18:09;;;;;;;0.03;0.03;;;;;;;26.05;52.03;101880.78;5065685;28;20071;-63
2023/06/28 08:20:35;;;;;;;0.00;0.00;;;;;;;26.22;51.45;101883.81;5062860;28;20136;-65
2023/06/28 08:23:03;;;;;;;0.10;0.10;;;;;;;26.55;50.58;101882.63;5052873;28;20080;-63
2023/06/28 08:25:28;;;;;;;0.00;0.00;;;;;;;25.99;51.93;101882.00;5070777;28;20063;-63
2023/06/28 08:27:53;;;;;;;0.00;0.00;;;;;;;25.94;51.81;101879.34;5051760;28;20040;-61
2023/06/28 08:30:19;;;;;;;0.00;0.00;;;;;;;26.02;52.29;101881.41;5070126;28;20105;-62
2023/06/28 08:32:45;;;;;;;0.00;0.00;;;;;;;25.80;52.88;101879.31;5069853;28;20631;-62
2023/06/28 08:35:10;;;;;;;0.00;0.00;;;;;;;25.94;52.34;101882.13;5083024;28;20120;-63
2023/06/28 08:37:36;;;;;;;0.00;0.00;;;;;;;26.22;51.65;101881.06;5070188;28;20037;-63
2023/06/28 08:40:04;;;;;;;0.00;0.00;;;;;;;26.26;51.69;101882.06;5070090;28;20064;-62
2023/06/28 08:42:30;;;;;;;0.00;0.00;;;;;;;25.88;52.77;101883.31;5069928;28;20048;-62
2023/06/28 08:44:59;;;;;;;0.00;0.00;;;;;;;26.21;51.95;101879.44;5070134;28;20440;-63
2023/06/28 08:47:31;;;;;;;0.10;0.10;;;;;;;26.07;53.30;101878.59;5070428;28;20030;-63
2023/06/28 08:49:58;;;;;;;0.10;0.10;;;;;;;26.28;52.50;101890.06;5069925;28;20064;-62
2023/06/28 08:52:24;;;;;;;0.00;0.00;;;;;;;26.06;52.85;101886.03;5069876;28;20408;-61
2023/06/28 08:54:51;;;;;;;0.00;0.00;;;;;;;25.45;54.79;101888.16;5069985;28;20112;-62
2023/06/28 08:57:17;;;;;;;0.00;0.00;;;;;;;25.82;53.68;101885.34;5070148;28;20033;-61
2023/06/28 08:59:43;;;;;;;0.00;0.00;;;;;;;25.73;54.49;101887.13;5070513;28;20480;-61
2023/06/28 09:02:09;;;;;;;0.00;0.00;;;;;;;26.02;53.56;101887.72;5050367;28;20045;-62
2023/06/28 09:04:35;;;;;;;0.00;0.00;;;;;;;25.88;54.33;101891.59;5065263;28;20033;-63
2023/06/28 09:07:02;;;;;;;0.00;0.00;;;;;;;26.14;53.66;101887.28;5070035;28;20036;-63
2023/06/28 09:09:30;;;;;;;0.00;0.00;;;;;;;25.43;55.97;101884.06;5069631;28;20075;-61
2023/06/28 09:11:55;;;;;;;0.00;0.00;;;;;;;26.07;54.88;101882.16;5069550;28;20024;-61
2023/06/28 09:14:20;;;;;;;0.00;0.00;;;;;;;26.07;54.14;101884.94;5072413;28;20024;-59
2023/06/28 09:16:46;;;;;;;0.10;0.10;;;;;;;25.96;55.16;101891.69;5072010;28;20495;-59
2023/06/28 09:19:11;;;;;;;0.00;0.00;;;;;;;26.00;55.09;101886.41;5073476;28;20044;-62
2023/06/28 09:21:37;;;;;;;0.08;0.08;;;;;;;25.82;55.30;101887.28;5073493;28;20041;-60
2023/06/28 09:24:02;;;;;;;0.00;0.00;;;;;;;26.12;55.22;101883.19;5073546;28;20024;-61
2023/06/28 09:26:32;;;;;;;0.00;0.00;;;;;;;26.22;54.77;101885.78;5074032;28;20439;-62
2023/06/28 09:29:07;;;;;;;0.00;0.00;;;;;;;25.69;56.59;101880.59;5073278;28;20037;-61
2023/06/28 09:31:40;;;;;;;0.08;0.08;;;;;;;25.96;55.37;101891.69;5034854;28;20401;-60
2023/06/28 09:34:05;;;;;;;0.00;0.00;;;;;;;26.32;54.51;101872.59;5053282;28;20033;-61
2023/06/28 09:36:32;;;;;;;0.00;0.00;;;;;;;26.25;54.71;101876.88;5070036;28;20408;-62
2023/06/28 09:38:58;;;;;;;0.00;0.00;;;;;;;26.63;53.74;101878.34;5073297;28;20528;-62
2023/06/28 09:41:24;;;;;;;0.08;0.08;;;;;;;26.83;52.83;101883.44;5073700;28;20108;-61
2023/06/28 09:43:50;;;;;;;0.00;0.00;;;;;;;26.35;54.64;101876.69;5073256;28;20060;-60
2023/06/28 09:46:17;;;;;;;0.00;0.00;;;;;;;26.43;54.74;101878.72;5073288;28;20061;-63
2023/06/28 09:48:45;;;;;;;0.00;0.00;;;;;;;25.78;55.82;101877.97;5073221;28;20050;-61
2023/06/28 09:51:11;;;;;;;0.00;0.00;;;;;;;25.89;55.84;101883.00;5073124;28;20563;-61
2023/06/28 09:54:06;;;;;;;0.00;0.00;;;;;;;26.27;54.35;101880.16;5058684;28;20075;-64
2023/06/28 09:56:35;;;;;;;0.10;0.10;;;;;;;26.31;54.29;101886.69;5034773;28;20049;-63
2023/06/28 09:59:06;;;;;;;0.00;0.00;;;;;;;26.33;54.09;101882.50;5036813;28;20043;-62
2023/06/28 10:01:31;;;;;;;0.00;0.00;;;;;;;26.79;52.86;101883.22;5042616;28;20069;-60
2023/06/28 10:03:58;;;;;;;0.00;0.00;;;;;;;26.32;54.05;101880.06;5042633;28;20115;-60
2023/06/28 10:06:25;;;;;;;0.00;0.00;;;;;;;26.12;54.76;101878.50;5049411;28;20033;-61
2023/06/28 10:08:51;;;;;;;0.00;0.00;;;;;;;26.12;54.74;101873.00;5049546;28;20536;-60
2023/06/28 10:11:17;;;;;;;0.00;0.00;;;;;;;26.23;54.62;101877.19;5035909;28;20025;-62
2023/06/28 10:13:46;;;;;;;0.00;0.00;;;;;;;25.71;56.03;101872.84;5049728;28;20045;-61
2023/06/28 10:16:18;;;;;;;0.00;0.00;;;;;;;26.55;53.80;101877.13;5049427;28;20156;-61
2023/06/28 10:18:44;;;;;;;0.00;0.00;;;;;;;26.08;55.25;101869.22;5049365;28;20464;-63
2023/06/28 10:21:10;;;;;;;0.03;0.03;;;;;;;25.59;55.90;101872.50;5048713;28;20048;-61
2023/06/28 10:23:39;;;;;;;0.00;0.00;;;;;;;25.54;56.68;101872.59;5049887;28;20064;-62
2023/06/28 10:26:04;;;;;;;0.00;0.00;;;;;;;26.14;55.07;101867.19;5041630;28;20084;-62
2023/06/28 10:28:34;;;;;;;0.00;0.00;;;;;;;26.26;54.94;101873.81;5033845;28;20068;-63
2023/06/28 10:31:00;;;;;;;0.00;0.00;;;;;;;26.44;54.05;101874.84;5049303;28;20496;-62
2023/06/28 10:33:27;;;;;;;0.00;0.00;;;;;;;26.15;54.04;101864.13;5053201;28;20033;-61
2023/06/28 10:35:55;;;;;;;0.00;0.00;;;;;;;26.51;54.18;101872.50;5071419;28;20077;-63
2023/06/28 10:38:20;;;;;;;0.10;0.10;;;;;;;26.71;53.22;101872.13;5072139;28;20025;-62
2023/06/28 10:40:46;;;;;;;0.00;0.00;;;;;;;26.27;54.13;101875.47;5071543;28;20034;-63
2023/06/28 10:43:25;;;;;;;0.00;0.00;;;;;;;26.40;54.00;101869.13;5071901;28;20063;-62
2023/06/28 10:45:54;;;;;;;0.00;0.00;;;;;;;25.74;55.20;101875.03;5071806;28;20033;-62
2023/06/28 10:48:21;;;;;;;0.00;0.00;;;;;;;25.98;54.73;101874.88;5071831;28;20107;-62
2023/06/28 10:50:48;;;;;;;0.00;0.00;;;;;;;26.08;53.54;101866.47;5071388;28;20082;-60
2023/06/28 10:53:25;;;;;;;0.00;0.00;;;;;;;25.94;54.59;101869.16;5072051;28;20093;-61
2023/06/28 10:56:10;;;;;;;0.00;0.00;;;;;;;26.58;53.43;101867.38;5071517;28;20112;-61
2023/06/28 10:58:39;;;;;;;0.00;0.00;;;;;;;26.86;52.60;101871.78;5071773;28;20032;-62
2023/06/28 11:01:07;;;;;;;0.00;0.00;;;;;;;27.25;51.29;101865.66;5065847;28;20039;-62
2023/06/28 11:03:45;;;;;;;0.00;0.00;;;;;;;27.36;51.74;101865.13;5062996;28;20044;-62
2023/06/28 11:06:13;;;;;;;0.00;0.00;;;;;;;26.87;53.32;101849.41;5071321;28;20123;-62
2023/06/28 11:08:42;;;;;;;0.00;0.00;;;;;;;27.36;51.50;101850.53;5053581;28;20530;-64
2023/06/28 11:11:09;;;;;;;0.00;0.00;;;;;;;27.83;50.91;101853.44;5070961;28;20086;-61
2023/06/28 11:13:50;;;;;;;0.00;0.00;;;;;;;28.18;50.56;101850.88;5071326;28;20048;-61
2023/06/28 11:16:22;;;;;;;0.00;0.00;;;;;;;28.45;49.57;101854.25;5071087;28;20503;-62
2023/06/28 11:18:49;;;;;;;0.00;0.00;;;;;;;28.39;48.87;101854.72;5071175;28;20443;-65
2023/06/28 11:21:18;;;;;;;0.00;0.00;;;;;;;28.14;49.79;101864.53;5068632;28;20040;-75